createdAt,value
2018-06-21T00:02:23.354Z,19.10
2018-06-21T00:05:21.190Z,19.30
2018-06-21T00:08:18.966Z,19.40
2018-06-21T00:11:16.990Z,19.40
2018-06-21T00:14:14.938Z,19.40
2018-06-21T00:17:12.848Z,19.40
2018-06-21T00:20:10.534Z,19.40
2018-06-21T00:23:08.291Z,19.30
2018-06-21T00:26:05.894Z,19.20
2018-06-21T00:29:03.713Z,19.20
2018-06-21T00:32:01.725Z,19.10
2018-06-21T00:34:59.470Z,19.20
2018-06-21T00:37:57.107Z,19.20
2018-06-21T00:40:54.975Z,19.10
2018-06-21T00:43:52.709Z,18.90
2018-06-21T00:46:50.642Z,18.90
2018-06-21T00:49:48.511Z,18.70
2018-06-21T00:52:46.244Z,18.70
2018-06-21T00:55:56.278Z,18.60
2018-06-21T00:58:55.158Z,18.60
2018-06-21T01:01:52.968Z,18.50
2018-06-21T01:04:50.597Z,18.50
2018-06-21T01:07:48.746Z,18.50
2018-06-21T01:10:47.230Z,18.50
2018-06-21T01:13:45.757Z,18.60
2018-06-21T01:16:43.498Z,18.60
2018-06-21T01:19:41.349Z,18.60
2018-06-21T01:22:39.150Z,18.50
2018-06-21T01:25:36.881Z,18.40
2018-06-21T01:28:35.617Z,18.30
2018-06-21T01:31:33.286Z,18.30
2018-06-21T01:34:31.029Z,18.30
2018-06-21T01:37:28.815Z,18.30
2018-06-21T01:40:26.490Z,18.50
2018-06-21T01:43:24.279Z,18.50
2018-06-21T01:46:22.096Z,18.50
2018-06-21T01:49:19.914Z,18.50
2018-06-21T01:52:17.677Z,18.50
2018-06-21T01:55:15.572Z,18.50
2018-06-21T01:58:13.469Z,18.50
2018-06-21T02:01:11.185Z,18.50
2018-06-21T02:04:08.952Z,18.40
2018-06-21T02:07:07.049Z,18.40
2018-06-21T02:10:04.693Z,18.40
2018-06-21T02:13:02.639Z,18.30
2018-06-21T02:16:00.234Z,18.30
2018-06-21T02:18:58.184Z,18.20
2018-06-21T02:21:56.053Z,18.10
2018-06-21T02:24:53.878Z,18.00
2018-06-21T02:27:51.778Z,18.00
2018-06-21T02:30:49.936Z,18.00
2018-06-21T02:33:47.693Z,18.00
2018-06-21T02:36:45.510Z,18.10
2018-06-21T02:39:43.483Z,18.00
2018-06-21T02:42:41.268Z,18.00
2018-06-21T02:45:39.027Z,18.00
2018-06-21T02:48:36.934Z,18.10
2018-06-21T02:51:34.545Z,18.10
2018-06-21T02:54:32.451Z,18.20
2018-06-21T02:57:30.190Z,18.20
2018-06-21T03:00:27.836Z,18.20
2018-06-21T03:03:25.602Z,18.20
2018-06-21T03:06:23.265Z,18.20
2018-06-21T03:09:22.018Z,18.20
2018-06-21T03:12:25.617Z,18.20
2018-06-21T03:15:23.389Z,18.20
2018-06-21T03:18:21.615Z,18.20
2018-06-21T03:21:19.360Z,18.20
2018-06-21T03:24:17.325Z,18.20
2018-06-21T03:27:16.194Z,18.30
2018-06-21T03:30:13.838Z,18.40
2018-06-21T03:33:11.643Z,18.60
2018-06-21T03:36:09.414Z,18.70
2018-06-21T03:39:07.211Z,19.00
2018-06-21T03:42:05.329Z,19.10
2018-06-21T03:45:04.322Z,19.30
2018-06-21T03:48:02.951Z,19.50
2018-06-21T03:51:00.790Z,19.50
2018-06-21T03:53:58.838Z,19.80
2018-06-21T03:56:56.642Z,19.90
2018-06-21T03:59:54.271Z,20.30
2018-06-21T04:02:52.262Z,20.40
2018-06-21T04:05:50.213Z,20.40
2018-06-21T04:08:47.967Z,20.00
2018-06-21T04:11:45.751Z,19.80
2018-06-21T04:14:43.511Z,19.90
2018-06-21T04:17:41.343Z,20.40
2018-06-21T04:20:39.122Z,20.20
2018-06-21T04:23:37.014Z,20.40
2018-06-21T04:26:34.858Z,20.20
2018-06-21T04:29:32.491Z,20.40
2018-06-21T04:32:30.256Z,20.60
2018-06-21T04:35:28.049Z,21.50
2018-06-21T04:38:26.834Z,22.10
2018-06-21T04:41:24.799Z,22.50
2018-06-21T04:44:22.402Z,22.50
2018-06-21T04:47:20.273Z,22.20
2018-06-21T04:50:18.124Z,21.60
2018-06-21T04:53:17.271Z,21.10
2018-06-21T05:05:54.923Z,21.50
2018-06-21T05:08:52.858Z,20.70
2018-06-21T05:11:50.774Z,21.20
2018-06-21T05:14:48.471Z,21.30
2018-06-21T05:17:46.722Z,21.60
2018-06-21T05:20:44.473Z,21.60
2018-06-21T05:23:42.221Z,21.50
2018-06-21T05:26:39.981Z,21.10
2018-06-21T05:29:37.650Z,20.60
2018-06-21T05:32:35.392Z,20.60
2018-06-21T05:35:33.296Z,20.70
2018-06-21T05:38:34.769Z,20.60
2018-06-21T05:41:35.582Z,20.60
2018-06-21T05:44:33.437Z,20.70
2018-06-21T05:47:31.238Z,20.70
2018-06-21T05:50:29.008Z,20.70
2018-06-21T05:53:26.813Z,20.70
2018-06-21T05:56:24.582Z,21.00
2018-06-21T05:59:22.167Z,20.90
2018-06-21T06:02:19.858Z,20.60
2018-06-21T06:05:17.602Z,20.70
2018-06-21T06:08:15.589Z,20.60
2018-06-21T06:11:14.311Z,20.30
2018-06-21T06:14:12.004Z,20.20
2018-06-21T06:17:10.639Z,20.00
2018-06-21T06:20:09.365Z,19.90
2018-06-21T06:23:07.131Z,19.60
2018-06-21T06:26:05.030Z,19.40
2018-06-21T06:29:02.778Z,19.30
2018-06-21T06:32:00.664Z,19.00
2018-06-21T06:34:58.407Z,18.80
2018-06-21T06:37:56.182Z,18.60
2018-06-21T06:40:54.092Z,18.30
2018-06-21T06:43:51.873Z,18.10
2018-06-21T06:46:49.546Z,18.00
2018-06-21T06:49:47.233Z,18.20
2018-06-21T06:52:45.383Z,18.20
2018-06-21T06:55:43.383Z,18.10
2018-06-21T06:58:41.148Z,18.10
2018-06-21T07:01:38.818Z,18.10
2018-06-21T07:04:36.533Z,18.10
2018-06-21T07:07:34.379Z,17.90
2018-06-21T07:10:32.331Z,17.70
2018-06-21T07:13:30.437Z,17.30
2018-06-21T07:16:28.179Z,17.30
2018-06-21T07:19:25.852Z,17.10
2018-06-21T07:22:23.509Z,17.00
2018-06-21T07:25:21.486Z,16.80
2018-06-21T07:28:19.136Z,16.80
2018-06-21T07:31:17.079Z,16.90
2018-06-21T07:34:14.807Z,16.90
2018-06-21T07:37:12.609Z,16.80
2018-06-21T07:40:10.412Z,16.70
2018-06-21T07:43:08.178Z,16.80
2018-06-21T07:46:05.922Z,16.70
2018-06-21T07:49:03.607Z,16.70
2018-06-21T07:52:01.327Z,16.60
2018-06-21T07:54:59.113Z,16.50
2018-06-21T07:57:56.655Z,16.30
2018-06-21T08:00:54.406Z,16.30
2018-06-21T08:03:52.215Z,16.20
2018-06-21T08:06:50.554Z,16.10
2018-06-21T08:09:48.275Z,16.10
2018-06-21T08:12:46.162Z,16.10
2018-06-21T08:15:43.916Z,15.90
2018-06-21T08:18:41.746Z,15.80
2018-06-21T08:21:39.451Z,15.60
2018-06-21T08:24:37.121Z,15.60
2018-06-21T08:27:34.693Z,15.50
2018-06-21T08:30:32.521Z,15.70
2018-06-21T08:33:30.234Z,16.00
2018-06-21T08:36:27.967Z,16.40
2018-06-21T08:39:25.669Z,17.10
2018-06-21T08:42:23.236Z,18.40
2018-06-21T08:45:20.977Z,19.50
2018-06-21T08:48:18.888Z,20.60
2018-06-21T08:51:16.560Z,19.70
2018-06-21T08:54:14.498Z,18.00
2018-06-21T08:57:12.134Z,17.40
2018-06-21T09:00:09.895Z,17.50
2018-06-21T09:03:07.658Z,18.30
2018-06-21T09:06:05.345Z,18.80
2018-06-21T09:09:03.192Z,19.30
2018-06-21T09:12:02.048Z,19.00
2018-06-21T09:15:00.370Z,19.40
2018-06-21T09:17:58.062Z,19.40
2018-06-21T09:20:55.857Z,19.10
2018-06-21T09:23:53.629Z,18.90
2018-06-21T09:26:51.377Z,19.50
2018-06-21T09:29:48.993Z,19.50
2018-06-21T09:32:46.701Z,19.20
2018-06-21T09:35:44.351Z,18.60
2018-06-21T09:38:48.053Z,18.10
2018-06-21T09:41:51.671Z,17.90
2018-06-21T09:45:06.339Z,19.00
2018-06-21T09:48:09.919Z,21.00
2018-06-21T09:51:08.781Z,21.90
2018-06-21T09:54:06.506Z,23.70
2018-06-21T09:57:05.479Z,23.20
2018-06-21T10:00:03.371Z,23.00
2018-06-21T10:03:01.008Z,23.10
2018-06-21T10:05:58.832Z,22.00
2018-06-21T10:08:56.474Z,21.00
2018-06-21T10:11:54.260Z,20.20
2018-06-21T10:14:52.037Z,19.30
2018-06-21T10:17:49.715Z,18.90
2018-06-21T10:20:47.350Z,18.70
2018-06-21T10:23:45.162Z,18.20
2018-06-21T10:26:43.463Z,17.90
2018-06-21T10:29:42.413Z,17.60
2018-06-21T10:32:40.132Z,16.60
2018-06-21T10:35:37.826Z,16.40
2018-06-21T10:38:35.563Z,16.60
2018-06-21T10:41:33.272Z,18.80
2018-06-21T10:44:31.059Z,20.00
2018-06-21T10:47:28.882Z,20.60
2018-06-21T10:50:26.570Z,21.80
2018-06-21T10:53:24.223Z,21.10
2018-06-21T10:56:21.993Z,21.60
2018-06-21T10:59:19.627Z,21.10
2018-06-21T11:02:17.291Z,19.80
2018-06-21T11:05:16.064Z,21.00
2018-06-21T11:08:13.793Z,19.70
2018-06-21T11:11:11.454Z,19.60
2018-06-21T11:14:09.128Z,21.30
2018-06-21T11:17:06.987Z,21.50
2018-06-21T11:20:04.699Z,21.70
2018-06-21T11:23:02.404Z,21.20
2018-06-21T11:26:00.144Z,21.20
2018-06-21T11:28:57.833Z,21.60
2018-06-21T11:31:56.578Z,21.80
2018-06-21T11:34:54.402Z,20.70
2018-06-21T11:37:52.237Z,19.70
2018-06-21T11:40:50.533Z,19.40
2018-06-21T11:43:48.416Z,19.20
2018-06-21T11:46:46.250Z,19.20
2018-06-21T11:49:43.865Z,19.30
2018-06-21T11:52:41.742Z,19.20
2018-06-21T11:55:39.506Z,19.00
2018-06-21T11:58:37.331Z,19.10
2018-06-21T12:01:35.184Z,19.10
2018-06-21T12:04:33.835Z,18.90
2018-06-21T12:07:31.611Z,18.90
2018-06-21T12:10:29.349Z,19.00
2018-06-21T12:13:27.141Z,19.00
2018-06-21T12:16:24.806Z,18.90
2018-06-21T12:19:22.693Z,18.30
2018-06-21T12:22:20.289Z,18.20
2018-06-21T12:25:17.894Z,17.90
2018-06-21T12:28:15.712Z,17.90
2018-06-21T12:31:13.581Z,17.90
2018-06-21T12:34:11.754Z,18.20
2018-06-21T12:37:09.551Z,18.80
2018-06-21T12:40:07.380Z,19.20
2018-06-21T12:43:05.065Z,19.10
2018-06-21T12:46:03.233Z,19.40
2018-06-21T12:49:01.461Z,19.70
2018-06-21T12:51:59.176Z,20.20
2018-06-21T12:54:56.921Z,19.90
2018-06-21T12:57:54.730Z,19.40
2018-06-21T13:00:52.455Z,19.00
2018-06-21T13:03:50.351Z,19.00
2018-06-21T13:06:48.131Z,19.20
2018-06-21T13:09:58.594Z,19.40
2018-06-21T13:14:03.447Z,19.50
2018-06-21T13:17:01.155Z,19.60
2018-06-21T13:19:59.015Z,19.50
2018-06-21T13:22:56.789Z,19.50
2018-06-21T13:25:54.459Z,19.60
2018-06-21T13:28:52.053Z,19.50
2018-06-21T13:31:49.700Z,19.40
2018-06-21T13:34:47.497Z,19.60
2018-06-21T13:37:45.160Z,19.50
2018-06-21T13:40:43.110Z,19.80
2018-06-21T13:43:41.617Z,19.30
2018-06-21T13:46:39.380Z,19.00
2018-06-21T13:49:37.153Z,18.50
2018-06-21T13:52:35.243Z,18.80
2018-06-21T13:55:32.972Z,18.80
2018-06-21T13:58:30.676Z,18.40
2018-06-21T14:01:28.708Z,18.40
2018-06-21T14:04:28.071Z,18.70
2018-06-21T14:07:26.600Z,18.70
2018-06-21T14:10:24.568Z,18.90
2018-06-21T14:13:22.387Z,18.70
2018-06-21T14:16:20.122Z,19.00
2018-06-21T14:19:17.822Z,19.20
2018-06-21T14:22:15.698Z,18.70
2018-06-21T14:25:13.399Z,18.80
2018-06-21T14:28:11.031Z,18.60
2018-06-21T14:31:08.675Z,18.50
2018-06-21T14:34:06.467Z,18.70
2018-06-21T14:37:04.218Z,19.20
2018-06-21T14:40:02.072Z,19.20
2018-06-21T14:42:59.766Z,19.20
2018-06-21T14:45:58.018Z,19.70
2018-06-21T14:48:55.870Z,19.60
2018-06-21T14:51:53.591Z,19.30
2018-06-21T14:54:51.336Z,18.60
2018-06-21T14:57:49.131Z,18.20
2018-06-21T15:00:46.866Z,18.20
2018-06-21T15:03:44.599Z,18.10
2018-06-21T15:06:42.382Z,18.00
2018-06-21T15:09:40.126Z,17.90
2018-06-21T15:12:37.825Z,18.30
2018-06-21T15:15:35.886Z,18.80
2018-06-21T15:18:33.518Z,18.80
2018-06-21T15:21:31.250Z,18.20
2018-06-21T15:24:29.297Z,18.50
2018-06-21T15:27:27.128Z,18.80
2018-06-21T15:30:24.967Z,18.70
2018-06-21T15:33:22.770Z,18.60
2018-06-21T15:36:20.741Z,18.30
2018-06-21T15:39:24.691Z,18.40
2018-06-21T15:42:22.949Z,18.40
2018-06-21T15:45:22.240Z,18.10
2018-06-21T15:48:19.852Z,18.00
2018-06-21T15:51:17.451Z,17.60
2018-06-21T15:54:16.165Z,17.40
2018-06-21T15:57:13.936Z,17.20
2018-06-21T16:00:11.692Z,16.80
2018-06-21T16:03:09.669Z,16.50
2018-06-21T16:06:07.371Z,16.30
2018-06-21T16:09:05.151Z,16.20
2018-06-21T16:12:02.883Z,16.10
2018-06-21T16:15:00.632Z,16.10
2018-06-21T16:17:58.294Z,16.30
2018-06-21T16:20:56.635Z,16.40
2018-06-21T16:23:54.875Z,16.30
2018-06-21T16:26:52.492Z,16.20
2018-06-21T16:29:50.138Z,16.70
2018-06-21T16:32:47.991Z,17.00
2018-06-21T16:35:45.694Z,17.10
2018-06-21T16:38:43.523Z,17.00
2018-06-21T16:41:41.195Z,16.50
2018-06-21T16:44:39.050Z,16.50
2018-06-21T16:47:36.802Z,16.40
2018-06-21T16:50:34.542Z,16.40
2018-06-21T16:53:32.253Z,16.10
2018-06-21T16:56:30.039Z,16.10
2018-06-21T16:59:27.739Z,16.50
2018-06-21T17:02:25.411Z,16.60
2018-06-21T17:05:24.318Z,16.60
2018-06-21T17:08:21.993Z,16.80
2018-06-21T17:11:19.762Z,16.70
2018-06-21T17:14:17.602Z,16.50
2018-06-21T17:17:15.494Z,16.30
2018-06-21T17:20:13.311Z,16.10
2018-06-21T17:23:10.980Z,16.20
2018-06-21T17:26:08.746Z,16.20
2018-06-21T17:29:06.352Z,16.00
2018-06-21T17:32:04.067Z,15.90
2018-06-21T17:35:02.420Z,15.90
2018-06-21T17:38:00.338Z,15.90
2018-06-21T17:40:58.439Z,15.80
2018-06-21T17:43:56.305Z,15.80
2018-06-21T17:46:53.977Z,14.10
2018-06-21T17:49:51.704Z,13.50
2018-06-21T17:52:49.427Z,13.30
2018-06-21T17:55:47.641Z,13.60
2018-06-21T17:58:45.312Z,13.90
2018-06-21T18:01:42.886Z,14.20
2018-06-21T18:04:40.703Z,14.50
2018-06-21T18:07:38.468Z,14.50
2018-06-21T18:10:37.334Z,14.40
2018-06-21T18:13:35.302Z,14.30
2018-06-21T18:16:33.631Z,14.20
2018-06-21T18:19:31.834Z,14.30
2018-06-21T18:22:29.654Z,14.30
2018-06-21T18:25:27.358Z,14.20
2018-06-21T18:28:24.947Z,14.10
2018-06-21T18:31:22.726Z,14.00
2018-06-21T18:34:20.381Z,14.00
2018-06-21T18:37:18.242Z,13.90
2018-06-21T18:40:16.078Z,13.90
2018-06-21T18:43:13.797Z,13.80
2018-06-21T18:46:11.730Z,13.70
2018-06-21T18:49:09.451Z,13.60
2018-06-21T18:52:07.218Z,13.60
2018-06-21T18:55:05.078Z,13.60
2018-06-21T18:58:02.786Z,13.60
2018-06-21T19:01:00.577Z,13.60
2018-06-21T19:03:58.342Z,13.70
2018-06-21T19:07:01.930Z,13.70
2018-06-21T19:10:05.497Z,13.70
2018-06-21T19:13:03.154Z,13.50
2018-06-21T19:16:00.882Z,13.50
2018-06-21T19:18:58.858Z,13.50
2018-06-21T19:21:56.879Z,13.40
2018-06-21T19:24:55.012Z,13.30
2018-06-21T19:27:52.788Z,13.20
2018-06-21T19:30:50.535Z,13.10
2018-06-21T19:33:48.646Z,13.10
2018-06-21T19:36:46.421Z,13.10
2018-06-21T19:39:44.186Z,13.10
2018-06-21T19:42:42.030Z,13.00
2018-06-21T19:45:39.821Z,13.10
2018-06-21T19:48:37.816Z,13.00
2018-06-21T19:51:35.953Z,13.00
2018-06-21T19:54:34.507Z,13.00
2018-06-21T19:57:32.439Z,13.00
2018-06-21T20:00:30.279Z,12.90
2018-06-21T20:03:28.363Z,12.80
2018-06-21T20:06:25.973Z,12.80
2018-06-21T20:09:23.681Z,12.70
2018-06-21T20:12:21.991Z,12.70
2018-06-21T20:15:19.677Z,12.60
2018-06-21T20:18:17.530Z,12.50
2018-06-21T20:21:19.504Z,12.40
2018-06-21T20:24:17.168Z,12.40
2018-06-21T20:27:14.925Z,12.30
2018-06-21T20:30:12.757Z,12.30
2018-06-21T20:33:10.484Z,12.20
2018-06-21T20:36:08.249Z,12.20
2018-06-21T20:39:06.004Z,12.10
2018-06-21T20:42:03.581Z,12.10
2018-06-21T20:45:01.482Z,12.00
2018-06-21T20:47:59.214Z,12.00
2018-06-21T20:50:56.890Z,11.90
2018-06-21T20:53:54.642Z,11.90
2018-06-21T20:56:52.728Z,11.80
2018-06-21T20:59:51.370Z,11.80
2018-06-21T21:02:50.259Z,11.80
2018-06-21T21:05:48.310Z,11.80
2018-06-21T21:08:46.141Z,11.70
2018-06-21T21:11:44.106Z,11.60
2018-06-21T21:14:42.350Z,11.70
2018-06-21T21:17:40.011Z,11.70
2018-06-21T21:20:37.574Z,11.60
2018-06-21T21:23:36.031Z,11.60
2018-06-21T21:26:33.789Z,11.60
2018-06-21T21:29:31.576Z,11.50
2018-06-21T21:32:30.345Z,11.40
2018-06-21T21:35:28.053Z,11.40
2018-06-21T21:38:25.828Z,11.40
2018-06-21T21:41:23.623Z,11.40
2018-06-21T21:44:21.330Z,11.40
2018-06-21T21:47:19.082Z,11.30
2018-06-21T21:50:16.916Z,11.20
2018-06-21T21:53:14.447Z,11.20
2018-06-21T21:56:12.373Z,11.10
2018-06-21T21:59:10.295Z,11.10
2018-06-21T22:02:07.962Z,11.00
2018-06-21T22:05:05.767Z,11.00
2018-06-21T22:08:03.449Z,11.00
2018-06-21T22:11:01.124Z,10.90
2018-06-21T22:14:03.627Z,10.90
2018-06-21T22:17:01.471Z,10.90
2018-06-21T22:19:59.247Z,10.90
2018-06-21T22:22:57.568Z,10.90
2018-06-21T22:25:55.809Z,10.90
2018-06-21T22:28:53.553Z,10.90
2018-06-21T22:31:51.293Z,11.00
2018-06-21T22:34:49.678Z,11.10
2018-06-21T22:37:47.278Z,11.10
2018-06-21T22:40:45.068Z,11.10
2018-06-21T22:43:42.883Z,11.10
2018-06-21T22:46:40.604Z,11.10
2018-06-21T22:49:38.244Z,11.20
2018-06-21T22:52:36.193Z,11.20
2018-06-21T22:55:33.873Z,11.30
2018-06-21T22:58:31.555Z,11.30
2018-06-21T23:01:29.509Z,11.30
2018-06-21T23:04:27.281Z,11.20
2018-06-21T23:07:25.134Z,11.30
2018-06-21T23:10:23.022Z,11.30
2018-06-21T23:13:20.909Z,11.30
2018-06-21T23:16:18.856Z,11.30
2018-06-21T23:19:44.042Z,11.30
2018-06-21T23:22:41.893Z,11.30
2018-06-21T23:25:39.724Z,11.30
2018-06-21T23:28:37.535Z,11.30
2018-06-21T23:31:44.079Z,11.30
2018-06-21T23:34:42.326Z,11.40
2018-06-21T23:37:39.898Z,11.30
2018-06-21T23:40:37.826Z,11.30
2018-06-21T23:43:35.552Z,11.30
2018-06-21T23:46:33.373Z,11.30
2018-06-21T23:49:31.089Z,11.20
2018-06-21T23:52:29.523Z,11.00
2018-06-21T23:55:27.263Z,11.00
2018-06-21T23:58:25.118Z,10.90
